Time;durP1;ratioP1;P1;durP2;ratioP2;P2;SDS_P1;SDS_P2;PMS_P1;PMS_P2;Temp;Humidity;BMP_temperature;BMP_pressure;BME280_temperature;BME280_humidity;BME280_pressure;Samples;Min_cycle;Max_cycle;Signal;HPM_P1;HPM_P2
2022/03/31 04:32:15;;;;;;;;;51.50;42.75;;;;;10.60;57.08;99546.28;5047357;27;45554;-76
2022/03/31 04:34:41;;;;;;;;;56.75;40.75;;;;;10.49;57.36;99530.00;5039745;28;45661;-76
2022/03/31 04:37:06;;;;;;;;;52.00;40.75;;;;;10.51;57.37;99556.72;5040152;28;45301;-76
2022/03/31 04:39:32;;;;;;;;;50.00;38.50;;;;;10.50;57.34;99549.63;5040665;28;45676;-76
2022/03/31 04:41:58;;;;;;;;;53.00;42.00;;;;;10.41;57.60;99556.44;5040491;28;45546;-76
2022/03/31 04:44:23;;;;;;;;;58.00;43.00;;;;;10.39;58.15;99553.00;5039875;28;46214;-76
2022/03/31 04:46:48;;;;;;;;;59.75;46.75;;;;;10.32;57.79;99553.50;5039939;28;45252;-76
2022/03/31 04:49:15;;;;;;;;;54.33;38.00;;;;;10.11;58.00;99548.53;5040416;28;45637;-74
2022/03/31 04:51:40;;;;;;;;;56.50;46.00;;;;;10.05;58.29;99556.06;5040332;28;45421;-78
2022/03/31 04:54:06;;;;;;;;;53.67;44.00;;;;;9.91;57.75;99537.31;5039989;28;46085;-74
2022/03/31 04:56:31;;;;;;;;;52.75;41.75;;;;;9.94;58.86;99545.19;5040354;28;45225;-78
2022/03/31 04:58:57;;;;;;;;;57.00;45.33;;;;;9.93;58.47;99547.00;5040485;28;45537;-75
2022/03/31 05:01:23;;;;;;;;;60.33;45.33;;;;;9.82;58.24;99536.94;5040263;28;45446;-77
2022/03/31 05:03:50;;;;;;;;;44.33;40.00;;;;;9.90;58.82;99543.63;5039957;28;45436;-79
2022/03/31 05:06:16;;;;;;;;;43.67;40.00;;;;;9.88;58.78;99528.53;5034094;28;45531;-78
2022/03/31 05:08:42;;;;;;;;;50.00;42.00;;;;;9.92;58.36;99531.88;5039158;28;45316;-81
2022/03/31 05:11:08;;;;;;;;;50.33;41.33;;;;;10.03;58.38;99536.56;5004383;28;46119;-78
2022/03/31 05:13:33;;;;;;;;;49.33;43.33;;;;;10.07;58.14;99546.13;5039568;28;46460;-77
2022/03/31 05:15:59;;;;;;;;;53.33;42.67;;;;;9.90;57.90;99519.53;5036311;28;45423;-79
2022/03/31 05:18:24;;;;;;;;;48.50;39.50;;;;;10.11;58.37;99556.56;5019518;28;45399;-78
2022/03/31 05:20:50;;;;;;;;;52.00;42.25;;;;;10.11;58.29;99542.31;5037374;28;45504;-77
2022/03/31 05:23:15;;;;;;;;;54.33;44.67;;;;;10.17;57.79;99553.50;5036583;28;45423;-74
2022/03/31 05:25:41;;;;;;;;;50.25;41.50;;;;;10.05;57.84;99534.63;5036865;28;45539;-78
2022/03/31 05:28:06;;;;;;;;;50.00;42.25;;;;;10.20;57.38;99564.03;5036675;28;45400;-75
2022/03/31 05:30:32;;;;;;;;;53.00;42.00;;;;;10.16;57.83;99557.13;5035938;28;45279;-74
2022/03/31 05:32:59;;;;;;;;;57.33;45.33;;;;;10.21;57.71;99554.16;5036607;28;46229;-78
2022/03/31 05:35:24;;;;;;;;;51.75;43.00;;;;;10.28;57.20;99566.25;5036063;28;45333;-76
2022/03/31 05:37:50;;;;;;;;;52.25;42.50;;;;;10.30;57.21;99561.63;5036498;28;45351;-76
2022/03/31 05:40:16;;;;;;;;;54.50;43.25;;;;;10.34;56.97;99571.19;5036326;28;45332;-77
2022/03/31 05:42:43;;;;;;;;;64.00;45.67;;;;;10.36;57.13;99563.94;5018136;28;46301;-78
2022/03/31 05:45:10;;;;;;;;;52.67;44.00;;;;;10.37;57.33;99570.16;5036352;28;45229;-75
2022/03/31 05:47:40;;;;;;;;;52.67;44.00;;;;;10.29;57.61;99578.69;5039141;28;45355;-77
2022/03/31 05:50:08;;;;;;;;;59.67;45.33;;;;;10.17;57.79;99558.88;5036574;28;45577;-75
2022/03/31 05:52:34;;;;;;;;;61.67;47.67;;;;;10.21;57.11;99575.59;5036092;28;45690;-75
2022/03/31 05:55:00;;;;;;;;;59.67;48.00;;;;;10.04;57.50;99551.66;5035678;28;45325;-78
2022/03/31 05:57:25;;;;;;;;;57.67;48.33;;;;;9.98;58.47;99570.78;5036365;28;45457;-78
2022/03/31 05:59:51;;;;;;;;;60.00;47.00;;;;;9.86;58.71;99559.91;5036419;28;45159;-77
2022/03/31 06:02:16;;;;;;;;;55.00;45.00;;;;;9.84;58.98;99577.88;5037613;28;46705;-78
2022/03/31 06:04:41;;;;;;;;;66.00;49.67;;;;;9.67;59.24;99583.38;5045301;28;45352;-81
2022/03/31 06:07:08;;;;;;;;;60.00;48.33;;;;;9.53;59.63;99566.47;5049594;28;45644;-75
2022/03/31 06:09:34;;;;;;;;;63.33;50.00;;;;;9.59;60.06;99593.69;5035194;28;45511;-74
2022/03/31 06:11:59;;;;;;;;;61.00;49.00;;;;;9.42;60.23;99562.59;5035582;28;46136;-76
2022/03/31 06:14:25;;;;;;;;;68.00;52.33;;;;;9.60;59.85;99590.06;5017575;28;45444;-75
2022/03/31 06:16:51;;;;;;;;;65.67;50.00;;;;;9.59;60.01;99588.34;5032159;28;45537;-77
2022/03/31 06:19:16;;;;;;;;;68.33;52.00;;;;;9.59;60.09;99592.84;5013637;28;46017;-79
2022/03/31 06:21:42;;;;;;;;;72.00;55.33;;;;;9.37;59.99;99558.47;5033641;28;45518;-76
2022/03/31 06:24:08;;;;;;;;;68.33;55.00;;;;;9.47;60.70;99587.25;5032684;28;45991;-76
2022/03/31 06:26:34;;;;;;;;;63.33;51.67;;;;;9.43;60.83;99584.88;5015874;28;45684;-75
2022/03/31 06:29:00;;;;;;;;;62.67;50.00;;;;;9.41;60.50;99563.56;5034689;28;45437;-75
2022/03/31 06:31:25;;;;;;;;;69.67;53.00;;;;;9.61;60.96;99597.13;5034351;28;45355;-75
2022/03/31 06:33:51;;;;;;;;;63.33;50.00;;;;;9.74;60.46;99592.75;5034661;28;45499;-75
2022/03/31 06:36:17;;;;;;;;;66.33;51.33;;;;;9.89;60.36;99599.00;5030167;28;45402;-74
2022/03/31 06:38:43;;;;;;;;;69.67;52.33;;;;;9.91;60.13;99585.50;5032026;28;45440;-74
2022/03/31 06:41:14;;;;;;;;;66.33;52.00;;;;;10.08;60.01;99604.06;5034791;28;45514;-74
2022/03/31 06:43:41;;;;;;;;;71.33;57.00;;;;;10.17;59.90;99604.41;5034558;28;45371;-74
2022/03/31 06:46:08;;;;;;;;;68.00;54.00;;;;;10.27;59.43;99603.84;5034588;28;45277;-76
2022/03/31 06:48:36;;;;;;;;;62.67;50.67;;;;;10.35;59.26;99602.38;5034462;28;45568;-75
2022/03/31 06:51:01;;;;;;;;;66.33;52.33;;;;;10.44;58.56;99598.28;5034915;28;46079;-76
2022/03/31 06:53:29;;;;;;;;;63.67;48.00;;;;;10.41;58.46;99577.88;5016297;28;45327;-74
2022/03/31 06:55:54;;;;;;;;;66.00;48.67;;;;;10.57;57.84;99599.19;5033796;28;45231;-78
2022/03/31 06:58:25;;;;;;;;;66.00;51.33;;;;;10.54;57.87;99583.34;5032197;28;45563;-76
2022/03/31 07:00:50;;;;;;;;;71.67;53.33;;;;;10.61;57.95;99593.56;5034051;28;45999;-77
2022/03/31 07:03:16;;;;;;;;;56.67;38.67;;;;;10.75;57.22;99598.00;5033961;28;45442;-76
2022/03/31 07:05:41;;;;;;;;;62.00;47.00;;;;;10.76;57.52;99591.69;5039446;28;45494;-74
2022/03/31 07:08:06;;;;;;;;;66.67;47.33;;;;;10.92;57.02;99599.59;5033601;28;45347;-76
2022/03/31 07:10:33;;;;;;;;;61.00;50.00;;;;;10.96;57.06;99587.72;5033560;28;46206;-77
2022/03/31 07:13:00;;;;;;;;;61.00;46.33;;;;;11.01;56.51;99582.91;5033696;28;45498;-75
2022/03/31 07:15:27;;;;;;;;;60.33;48.33;;;;;11.11;56.08;99588.53;5033334;28;45403;-78
2022/03/31 07:17:54;;;;;;;;;66.33;50.00;;;;;11.19;55.57;99591.56;5030919;28;45484;-77
2022/03/31 07:20:21;;;;;;;;;55.00;45.67;;;;;11.10;55.24;99568.88;5033167;28;46158;-77
2022/03/31 07:22:47;;;;;;;;;62.25;45.25;;;;;11.27;55.46;99591.91;5033479;28;45375;-77
2022/03/31 07:25:13;;;;;;;;;50.25;42.50;;;;;11.33;55.86;99588.78;5032523;28;45433;-76
2022/03/31 07:27:39;;;;;;;;;58.00;44.25;;;;;11.34;55.12;99599.44;5029687;28;45377;-78
2022/03/31 07:30:04;;;;;;;;;48.50;37.25;;;;;11.20;55.57;99561.09;5033075;28;45545;-77
2022/03/31 07:32:32;;;;;;;;;59.50;43.50;;;;;11.41;55.24;99599.00;5032226;28;45447;-78
2022/03/31 07:34:57;;;;;;;;;66.50;47.25;;;;;11.42;55.47;99590.84;5033228;28;45543;-77
2022/03/31 07:37:23;;;;;;;;;53.00;42.00;;;;;11.37;55.43;99607.28;5033635;28;45658;-77
2022/03/31 07:39:48;;;;;;;;;51.25;40.25;;;;;11.31;55.14;99604.16;5033249;28;45532;-76
2022/03/31 07:42:14;;;;;;;;;54.75;43.50;;;;;11.34;55.82;99603.94;5033448;28;45436;-75
2022/03/31 07:44:40;;;;;;;;;54.00;43.25;;;;;11.30;55.66;99613.16;5032842;28;45706;-74
2022/03/31 07:47:06;;;;;;;;;55.50;45.00;;;;;11.28;56.03;99615.94;5033212;28;45313;-75
2022/03/31 07:49:32;;;;;;;;;62.50;44.75;;;;;11.16;55.78;99591.75;5033226;28;46389;-76
2022/03/31 07:51:57;;;;;;;;;51.00;42.25;;;;;11.28;56.05;99615.09;5033276;28;45681;-77
2022/03/31 07:54:22;;;;;;;;;63.50;44.75;;;;;11.23;55.93;99606.47;5033040;28;45358;-75
2022/03/31 07:56:49;;;;;;;;;56.25;41.50;;;;;11.20;56.42;99588.78;5033309;28;45335;-76
2022/03/31 07:59:14;;;;;;;;;57.50;44.75;;;;;11.19;56.03;99600.47;5030507;28;46121;-76
2022/03/31 08:01:39;;;;;;;;;54.00;39.75;;;;;11.26;56.49;99614.31;5032844;28;45397;-77
2022/03/31 08:04:06;;;;;;;;;62.00;49.00;;;;;10.92;57.37;99589.72;5034501;28;45293;-77
2022/03/31 08:06:32;;;;;;;;;55.67;45.00;;;;;10.84;58.35;99620.69;5035258;28;46088;-79
2022/03/31 08:08:58;;;;;;;;;64.33;49.33;;;;;10.49;59.20;99625.63;5032775;28;45522;-76
2022/03/31 08:11:23;;;;;;;;;60.67;50.00;;;;;10.15;61.51;99618.81;5032147;28;45400;-78
2022/03/31 08:13:49;;;;;;;;;61.67;49.67;;;;;9.82;62.57;99614.56;5032848;28;45445;-75
2022/03/31 08:16:14;;;;;;;;;71.33;52.33;;;;;9.71;63.06;99641.09;5031441;28;45371;-77
2022/03/31 08:18:39;;;;;;;;;62.33;49.67;;;;;9.58;63.81;99633.91;5033264;28;45648;-78
2022/03/31 08:21:05;;;;;;;;;65.00;53.33;;;;;9.40;64.16;99643.88;5032292;28;45503;-78
2022/03/31 08:23:31;;;;;;;;;72.33;55.00;;;;;9.19;65.84;99648.66;5014648;28;45363;-78
2022/03/31 08:25:57;;;;;;;;;67.67;52.33;;;;;9.09;66.50;99645.69;5027472;28;45478;-76
2022/03/31 08:28:25;;;;;;;;;59.00;47.00;;;;;9.25;66.39;99659.03;5032912;28;46207;-76
2022/03/31 08:30:50;;;;;;;;;38.50;31.75;;;;;9.25;64.85;99658.16;5032230;28;45371;-78
2022/03/31 08:33:16;;;;;;;;;23.00;21.00;;;;;9.35;63.65;99672.72;5033336;28;45531;-76
2022/03/31 08:35:41;;;;;;;;;21.00;19.50;;;;;9.40;63.63;99679.53;5031988;28;45596;-76
2022/03/31 08:38:07;;;;;;;;;20.75;20.50;;;;;9.43;63.50;99679.34;5032381;28;46090;-77
2022/03/31 08:40:32;;;;;;;;;15.75;15.50;;;;;9.38;63.06;99685.91;5031838;28;45455;-75
2022/03/31 08:43:00;;;;;;;;;13.00;13.00;;;;;9.45;62.15;99693.47;5033579;28;45371;-76
2022/03/31 08:45:26;;;;;;;;;8.50;7.50;;;;;9.47;61.99;99707.63;5035352;28;45573;-75
2022/03/31 08:47:53;;;;;;;;;12.00;12.00;;;;;9.37;61.95;99701.09;5036151;28;46159;-75
2022/03/31 08:50:21;;;;;;;;;17.50;12.75;;;;;9.31;60.76;99685.41;5035031;28;45385;-78
2022/03/31 08:52:47;;;;;;;;;8.25;8.00;;;;;9.43;60.20;99716.81;5036089;28;45309;-78
2022/03/31 08:55:13;;;;;;;;;8.00;8.00;;;;;9.34;60.38;99716.47;5035378;28;45423;-76
2022/03/31 08:57:44;;;;;;;;;10.00;9.00;;;;;9.28;60.79;99720.34;5036279;28;45478;-76
2022/03/31 09:00:12;;;;;;;;;7.75;7.75;;;;;9.32;59.83;99729.06;5035646;28;45352;-77
2022/03/31 09:02:39;;;;;;;;;8.75;7.25;;;;;9.34;59.39;99740.53;5019896;28;45400;-76
2022/03/31 09:05:09;;;;;;;;;7.25;7.25;;;;;9.21;58.97;99732.34;5038345;28;45489;-74
2022/03/31 09:07:35;;;;;;;;;9.25;7.25;;;;;9.11;59.68;99726.63;5037887;28;46060;-76
2022/03/31 09:10:00;;;;;;;;;6.25;6.25;;;;;9.18;59.74;99751.25;5036767;28;45226;-75
2022/03/31 09:12:36;;;;;;;;;12.00;6.25;;;;;9.19;60.36;99760.97;5019463;28;45362;-77
2022/03/31 09:15:10;;;;;;;;;9.00;7.50;;;;;9.16;59.38;99758.47;5036365;28;45517;-74
2022/03/31 09:17:35;;;;;;;;;10.25;8.00;;;;;9.18;60.05;99775.31;5033735;28;45980;-75
2022/03/31 09:20:01;;;;;;;;;6.50;6.00;;;;;9.19;58.47;99779.69;5035722;28;45209;-77
2022/03/31 09:22:26;;;;;;;;;7.50;7.50;;;;;9.07;58.35;99767.00;5035350;28;45416;-77
2022/03/31 09:25:01;;;;;;;;;8.50;7.00;;;;;9.00;58.30;99774.53;5035146;28;46344;-74
2022/03/31 09:27:26;;;;;;;;;10.25;7.00;;;;;9.03;58.34;99792.19;5035132;28;46622;-76
2022/03/31 09:29:51;;;;;;;;;6.75;6.00;;;;;9.02;59.00;99796.66;5034771;28;45378;-74
2022/03/31 09:32:17;;;;;;;;;6.75;6.75;;;;;8.96;58.98;99780.09;5034478;28;45406;-75
2022/03/31 09:34:45;;;;;;;;;8.00;8.00;;;;;8.89;58.40;99800.09;5034662;28;45358;-77
2022/03/31 09:37:12;;;;;;;;;7.00;7.00;;;;;8.79;58.84;99793.50;5036523;28;46011;-76
2022/03/31 09:39:39;;;;;;;;;5.00;5.00;;;;;8.83;58.96;99803.09;5034987;28;45383;-77
2022/03/31 09:42:14;;;;;;;;;7.00;7.00;;;;;8.88;59.89;99815.25;5036960;28;45332;-75
2022/03/31 09:44:42;;;;;;;;;10.00;8.00;;;;;8.79;59.54;99789.03;5034418;28;45518;-76
2022/03/31 09:47:08;;;;;;;;;6.00;6.00;;;;;8.71;59.87;99784.09;5016371;28;47699;-74
2022/03/31 09:49:34;;;;;;;;;7.00;7.00;;;;;8.89;58.05;99816.13;5033990;28;45596;-74
2022/03/31 09:52:02;;;;;;;;;4.75;4.75;;;;;8.83;58.82;99811.13;5034723;28;45478;-78
2022/03/31 09:54:30;;;;;;;;;3.25;3.25;;;;;8.82;58.80;99817.41;5033643;28;45356;-77
2022/03/31 09:56:57;;;;;;;;;3.00;3.00;;;;;8.75;58.83;99797.31;5034982;28;45623;-75
2022/03/31 09:59:29;;;;;;;;;6.00;6.00;;;;;8.85;59.59;99804.72;5035607;28;45988;-76
2022/03/31 10:01:55;;;;;;;;;6.00;6.00;;;;;8.83;58.46;99795.09;5014984;28;45523;-76
2022/03/31 10:04:21;;;;;;;;;6.50;6.00;;;;;8.98;58.06;99810.28;5039941;28;46103;-76
2022/03/31 10:06:46;;;;;;;;;11.00;8.00;;;;;8.99;58.78;99820.91;5035972;28;45614;-76
2022/03/31 10:09:12;;;;;;;;;6.75;6.75;;;;;8.98;58.89;99818.31;5034573;28;45333;-77
2022/03/31 10:11:41;;;;;;;;;4.00;4.00;;;;;9.03;57.96;99813.56;5034331;28;45562;-73
2022/03/31 10:14:12;;;;;;;;;5.50;5.50;;;;;9.07;57.04;99825.84;5034506;28;45443;-76
2022/03/31 10:16:44;;;;;;;;;6.25;4.50;;;;;9.03;58.17;99833.16;5033168;28;45685;-75
2022/03/31 10:19:10;;;;;;;;;7.25;6.00;;;;;9.02;58.18;99833.22;5033996;28;45482;-77
2022/03/31 10:21:36;;;;;;;;;7.75;6.50;;;;;9.04;57.57;99828.66;5034372;28;45358;-77
2022/03/31 10:26:57;;;;;;;;;4.50;4.50;;;;;9.09;57.96;99830.16;5034558;28;45501;-76
2022/03/31 10:29:22;;;;;;;;;4.00;3.75;;;;;9.10;57.44;99831.03;5033991;28;45385;-76
2022/03/31 10:31:48;;;;;;;;;5.50;4.50;;;;;9.15;58.06;99818.25;5033190;28;46160;-76
2022/03/31 10:34:14;;;;;;;;;7.00;4.50;;;;;9.23;57.04;99823.19;5033968;28;45320;-76
2022/03/31 10:36:45;;;;;;;;;6.25;6.25;;;;;9.25;57.80;99811.47;5033223;28;46090;-81
2022/03/31 10:39:21;;;;;;;;;5.00;5.00;;;;;9.45;56.69;99826.38;5034174;28;45301;-77
2022/03/31 10:41:59;;;;;;;;;11.00;7.00;;;;;9.45;56.73;99821.03;5033381;28;45303;-77
2022/03/31 10:44:25;;;;;;;;;4.00;4.00;;;;;9.49;56.42;99814.56;5034052;28;45559;-76
2022/03/31 10:47:05;;;;;;;;;8.00;4.00;;;;;9.54;57.32;99808.94;5011436;28;46042;-76
2022/03/31 10:49:32;;;;;;;;;4.75;4.75;;;;;9.64;56.62;99810.16;5031918;28;45461;-76
2022/03/31 10:51:58;;;;;;;;;5.25;4.00;;;;;9.69;57.15;99802.75;5031587;28;46054;-76
2022/03/31 10:54:35;;;;;;;;;6.00;4.00;;;;;9.79;56.63;99810.13;5033325;28;45341;-77
2022/03/31 10:57:08;;;;;;;;;3.00;3.00;;;;;9.84;56.33;99808.09;5033037;28;46218;-76
2022/03/31 10:59:36;;;;;;;;;3.00;3.00;;;;;9.82;55.93;99807.31;5033430;28;45410;-77
2022/03/31 11:02:08;;;;;;;;;4.25;4.25;;;;;9.88;56.19;99803.41;5032655;28;45446;-76
2022/03/31 11:04:43;;;;;;;;;3.00;3.00;;;;;9.92;55.14;99804.97;5038788;28;45380;-75
2022/03/31 11:07:13;;;;;;;;;3.00;3.00;;;;;9.99;55.68;99814.34;5030649;28;46339;-76
2022/03/31 11:09:39;;;;;;;;;2.00;2.00;;;;;9.99;55.59;99813.50;5031642;28;45988;-77
2022/03/31 11:12:04;;;;;;;;;1.25;1.25;;;;;9.94;54.98;99808.41;5011162;28;45408;-76
2022/03/31 11:14:30;;;;;;;;;4.00;4.00;;;;;9.88;54.80;99796.22;5027355;28;45356;-77
2022/03/31 11:16:55;;;;;;;;;2.50;2.50;;;;;10.00;54.90;99818.75;5032475;28;46204;-77
2022/03/31 11:19:21;;;;;;;;;5.75;3.00;;;;;10.01;53.44;99820.50;5032946;28;45311;-77
2022/03/31 11:21:47;;;;;;;;;5.25;4.00;;;;;9.99;53.20;99817.03;5033081;28;45510;-79
2022/03/31 11:24:13;;;;;;;;;4.00;4.00;;;;;9.99;53.36;99818.84;5033274;28;45372;-76
2022/03/31 11:26:41;;;;;;;;;7.50;7.50;;;;;10.01;53.45;99811.59;5033639;28;45734;-71
2022/03/31 11:29:12;;;;;;;;;5.25;3.00;;;;;9.99;53.44;99810.81;5033320;28;45344;-79
2022/03/31 11:31:52;;;;;;;;;6.50;4.00;;;;;9.91;53.49;99789.84;5031987;28;45405;-78
2022/03/31 11:34:21;;;;;;;;;8.00;7.00;;;;;10.01;53.34;99792.84;5034263;28;45352;-80
2022/03/31 11:36:47;;;;;;;;;9.50;6.00;;;;;9.94;54.03;99775.41;5033608;28;46202;-78
2022/03/31 11:39:13;;;;;;;;;8.50;6.75;;;;;10.09;53.82;99782.53;5033230;28;45419;-77
2022/03/31 11:41:40;;;;;;;;;7.00;7.00;;;;;10.21;53.89;99804.13;5033289;28;45472;-78
2022/03/31 11:44:08;;;;;;;;;6.25;6.25;;;;;10.27;53.43;99796.69;5037100;28;45395;-76
2022/03/31 11:46:47;;;;;;;;;3.50;3.50;;;;;10.37;54.05;99811.28;5033564;28;46122;-75
2022/03/31 11:49:24;;;;;;;;;8.00;6.25;;;;;10.39;53.69;99804.84;5021012;28;45469;-78
2022/03/31 11:51:51;;;;;;;;;2.75;2.75;;;;;10.38;52.81;99797.75;5032533;28;45392;-76
2022/03/31 11:54:17;;;;;;;;;4.25;4.25;;;;;10.41;52.59;99807.44;5032697;28;45419;-73
2022/03/31 11:56:44;;;;;;;;;7.50;6.50;;;;;10.31;52.95;99808.94;5031607;28;46758;-72
2022/03/31 11:59:09;;;;;;;;;5.00;4.00;;;;;10.34;52.39;99811.44;5031956;28;45438;-73
2022/03/31 12:01:48;;;;;;;;;3.00;3.00;;;;;10.19;52.60;99799.84;5031958;28;45379;-72
2022/03/31 12:04:21;;;;;;;;;5.25;5.25;;;;;10.23;52.11;99804.03;5035142;28;45636;-73
2022/03/31 12:06:52;;;;;;;;;4.75;3.00;;;;;10.35;52.60;99815.84;5033423;28;47262;-72
2022/03/31 12:09:18;;;;;;;;;6.25;3.00;;;;;10.44;51.85;99826.88;5032338;28;45708;-73
2022/03/31 12:11:45;;;;;;;;;3.00;3.00;;;;;10.44;50.82;99829.56;5032135;28;45281;-76
2022/03/31 12:14:11;;;;;;;;;5.25;3.00;;;;;10.44;51.97;99826.88;5032586;28;45315;-71
2022/03/31 12:16:44;;;;;;;;;3.00;3.00;;;;;10.38;51.41;99823.72;5030980;28;46166;-73
2022/03/31 12:19:09;;;;;;;;;5.00;5.00;;;;;10.50;51.28;99836.38;5034820;28;45514;-72
2022/03/31 12:21:56;;;;;;;;;4.50;4.50;;;;;10.54;51.18;99841.47;5035685;28;45538;-73
2022/03/31 12:24:21;;;;;;;;;7.00;5.00;;;;;10.51;51.55;99816.66;5035338;28;46404;-71
2022/03/31 12:26:58;;;;;;;;;5.00;5.00;;;;;10.58;51.07;99829.59;5035737;28;46190;-77
2022/03/31 12:29:31;;;;;;;;;4.00;4.00;;;;;10.67;50.41;99836.22;5035322;28;45333;-72
2022/03/31 12:32:06;;;;;;;;;5.25;4.00;;;;;10.71;50.71;99835.09;5034345;28;45519;-71
2022/03/31 12:34:33;;;;;;;;;6.50;4.00;;;;;10.65;50.56;99823.84;5035762;28;45310;-74
2022/03/31 12:36:58;;;;;;;;;3.50;3.50;;;;;10.70;51.23;99829.81;5035705;28;45514;-72
2022/03/31 12:39:24;;;;;;;;;4.50;4.50;;;;;10.59;50.24;99807.19;5022259;28;45421;-74
2022/03/31 12:41:52;;;;;;;;;4.00;4.00;;;;;10.74;51.14;99834.00;5035178;28;45336;-70
2022/03/31 12:44:21;;;;;;;;;3.25;3.25;;;;;10.77;50.37;99825.78;5034827;28;45580;-74
2022/03/31 12:46:58;;;;;;;;;4.75;4.00;;;;;10.84;49.49;99832.50;5034541;28;46522;-73
2022/03/31 12:49:26;;;;;;;;;4.00;2.75;;;;;10.93;49.17;99824.75;5035053;28;45829;-72
2022/03/31 12:51:53;;;;;;;;;3.25;3.25;;;;;11.04;50.07;99825.91;5035260;28;45647;-71
2022/03/31 12:54:36;;;;;;;;;5.00;4.50;;;;;11.06;48.89;99811.41;5017687;28;45586;-74
2022/03/31 12:57:05;;;;;;;;;4.50;4.25;;;;;11.26;48.47;99818.22;5035514;28;45677;-74
2022/03/31 12:59:33;;;;;;;;;5.75;4.00;;;;;11.38;48.31;99809.41;5035039;28;45465;-71
2022/03/31 13:01:59;;;;;;;;;3.25;3.25;;;;;11.65;46.92;99814.81;5033338;28;45492;-74
2022/03/31 13:04:24;;;;;;;;;4.25;4.25;;;;;11.72;46.50;99798.22;5039971;28;45596;-71
2022/03/31 13:06:50;;;;;;;;;5.00;4.00;;;;;12.19;45.43;99820.22;5035883;28;45815;-72
2022/03/31 13:09:16;;;;;;;;;6.25;5.00;;;;;12.40;45.36;99803.50;5034888;28;45407;-72
2022/03/31 13:11:43;;;;;;;;;5.25;5.25;;;;;12.68;44.41;99807.81;5034356;28;45733;-73
2022/03/31 13:14:12;;;;;;;;;5.00;3.25;;;;;12.84;43.79;99813.84;5016769;28;47153;-72
2022/03/31 13:16:37;;;;;;;;;4.00;4.00;;;;;13.00;43.63;99802.03;5034133;28;45666;-70
2022/03/31 13:19:04;;;;;;;;;3.75;3.75;;;;;13.12;42.93;99787.69;5034905;28;45462;-74
2022/03/31 13:21:29;;;;;;;;;3.00;3.00;;;;;13.19;42.79;99799.78;5034437;28;45512;-73
2022/03/31 13:23:55;;;;;;;;;4.75;4.75;;;;;13.13;43.88;99795.69;5034604;28;45945;-68
2022/03/31 13:26:21;;;;;;;;;5.00;5.00;;;;;12.91;42.87;99784.72;5034034;28;45436;-73
2022/03/31 13:28:46;;;;;;;;;4.00;4.00;;;;;12.87;43.13;99804.72;5034266;28;45851;-72
2022/03/31 13:31:12;;;;;;;;;6.00;5.00;;;;;12.70;42.78;99795.13;5032889;28;45683;-74
2022/03/31 13:33:37;;;;;;;;;5.75;4.25;;;;;12.43;43.34;99802.41;5034217;28;45376;-71
2022/03/31 13:36:03;;;;;;;;;4.25;4.25;;;;;12.39;42.94;99796.41;5034170;28;45339;-74
2022/03/31 13:38:34;;;;;;;;;3.75;3.75;;;;;13.39;42.74;99798.34;5034019;28;45820;-72
2022/03/31 13:41:00;;;;;;;;;4.25;4.25;;;;;15.01;39.29;99785.06;5034432;28;45400;-71
2022/03/31 13:43:27;;;;;;;;;6.00;5.00;;;;;16.55;36.42;99778.56;5033901;28;45516;-72
2022/03/31 13:45:52;;;;;;;;;5.50;4.50;;;;;17.83;32.57;99761.78;5034359;28;45628;-74
2022/03/31 13:48:18;;;;;;;;;5.50;4.00;;;;;18.97;32.43;99776.31;5033893;28;45354;-72
2022/03/31 13:50:45;;;;;;;;;5.25;4.25;;;;;19.94;29.64;99765.88;5034301;28;45514;-72
2022/03/31 13:55:56;;;;;;;;;6.75;5.75;;;;;20.85;28.28;99761.91;5034168;28;45760;-72
2022/03/31 14:01:10;;;;;;;;;5.50;5.00;;;;;20.94;27.80;99747.34;5033986;28;45513;-75
2022/03/31 14:03:41;;;;;;;;;4.00;4.00;;;;;20.40;28.57;99756.66;5033483;28;45548;-76
2022/03/31 14:06:08;;;;;;;;;4.75;4.75;;;;;19.38;29.15;99736.97;5031285;28;45463;-73
2022/03/31 14:08:34;;;;;;;;;4.50;4.50;;;;;18.71;30.81;99764.41;5032996;28;45506;-75
2022/03/31 14:11:01;;;;;;;;;5.00;5.00;;;;;17.88;31.50;99781.19;5033323;28;45825;-73
2022/03/31 14:13:26;;;;;;;;;6.00;4.75;;;;;17.13;32.28;99787.06;5033150;28;45412;-71
2022/03/31 14:15:52;;;;;;;;;4.75;4.00;;;;;16.23;33.85;99792.13;5034252;28;46282;-74
2022/03/31 14:18:17;;;;;;;;;2.25;2.25;;;;;15.60;34.92;99801.88;5033148;28;45428;-72
2022/03/31 14:20:44;;;;;;;;;2.25;2.25;;;;;14.92;35.67;99793.88;5034187;28;45866;-74
2022/03/31 14:23:09;;;;;;;;;2.75;2.75;;;;;14.37;36.39;99815.16;5033286;28;45456;-74
2022/03/31 14:25:35;;;;;;;;;1.00;1.00;;;;;13.74;37.24;99809.22;5033703;28;46099;-73
2022/03/31 14:28:02;;;;;;;;;2.00;2.00;;;;;13.33;38.35;99796.09;5032622;28;45317;-73
2022/03/31 14:30:27;;;;;;;;;3.25;3.00;;;;;13.12;39.21;99806.53;5015696;28;45469;-73
2022/03/31 14:32:53;;;;;;;;;1.50;1.50;;;;;12.91;39.45;99810.75;5032537;28;45620;-74
2022/03/31 14:35:18;;;;;;;;;1.50;1.50;;;;;12.53;39.76;99773.94;5033215;28;45236;-73
2022/03/31 14:37:44;;;;;;;;;2.00;2.00;;;;;12.48;39.24;99795.78;5011697;28;45673;-73
2022/03/31 14:40:10;;;;;;;;;2.75;2.00;;;;;12.37;39.91;99806.41;5024841;28;45343;-72
2022/03/31 14:42:35;;;;;;;;;4.00;3.00;;;;;12.27;40.24;99799.91;5032337;28;45617;-75
2022/03/31 14:45:03;;;;;;;;;4.00;2.50;;;;;12.16;39.43;99793.56;5033195;28;46905;-76
2022/03/31 14:47:31;;;;;;;;;3.50;3.50;;;;;12.20;40.58;99782.50;5032800;28;45423;-73
2022/03/31 14:49:56;;;;;;;;;1.00;1.00;;;;;12.27;40.05;99753.38;5033843;28;45300;-74
2022/03/31 14:52:24;;;;;;;;;2.75;2.00;;;;;12.74;39.73;99783.22;5032924;28;45292;-78
2022/03/31 14:54:49;;;;;;;;;2.00;2.00;;;;;13.16;38.95;99779.34;5033605;28;46251;-74
2022/03/31 14:57:15;;;;;;;;;3.00;3.00;;;;;13.53;37.27;99776.66;5014577;28;45352;-76
2022/03/31 14:59:40;;;;;;;;;2.00;2.00;;;;;13.97;37.34;99781.44;5033217;28;45307;-79
2022/03/31 15:02:06;;;;;;;;;2.50;2.50;;;;;14.52;36.87;99767.34;5032640;28;45630;-77
2022/03/31 15:04:31;;;;;;;;;3.25;3.25;;;;;14.94;34.71;99763.09;5033039;28;46133;-78
2022/03/31 15:06:56;;;;;;;;;3.50;3.50;;;;;15.10;35.31;99771.69;5032307;28;45367;-73
2022/03/31 15:14:51;;;;;;;;;3.25;3.00;;;;;15.23;34.20;99784.19;5032051;28;45330;-74
2022/03/31 15:17:17;;;;;;;;;4.00;4.00;;;;;15.15;35.22;99774.00;5032302;28;45456;-73
2022/03/31 15:19:43;;;;;;;;;4.00;4.00;;;;;15.18;35.04;99757.59;5032877;28;45463;-74
2022/03/31 15:22:09;;;;;;;;;4.00;4.00;;;;;15.43;35.05;99770.81;5032690;28;45563;-74
2022/03/31 15:24:37;;;;;;;;;3.00;3.00;;;;;15.46;34.98;99773.28;5035783;28;45470;-72
2022/03/31 15:27:04;;;;;;;;;4.00;3.00;;;;;15.28;35.20;99763.97;5021096;28;45570;-69
2022/03/31 15:29:31;;;;;;;;;2.50;2.50;;;;;14.99;36.25;99758.19;5015927;28;45543;-71
2022/03/31 15:31:56;;;;;;;;;3.50;3.00;;;;;14.85;36.62;99771.94;5024705;28;45654;-70
2022/03/31 15:34:22;;;;;;;;;5.25;4.25;;;;;14.52;36.87;99774.56;5032078;28;45422;-71
2022/03/31 15:36:51;;;;;;;;;2.50;2.50;;;;;14.40;38.24;99789.84;5032759;28;45411;-71
2022/03/31 15:39:17;;;;;;;;;4.75;3.75;;;;;13.97;38.18;99768.81;5031852;28;45513;-71
2022/03/31 15:41:42;;;;;;;;;3.00;3.00;;;;;13.72;39.38;99771.63;5032481;28;45505;-70
2022/03/31 15:44:07;;;;;;;;;6.50;4.00;;;;;13.69;39.16;99773.72;5030834;28;46017;-71
2022/03/31 15:46:33;;;;;;;;;5.00;3.25;;;;;13.68;39.29;99772.00;5032012;28;45368;-72
2022/03/31 15:48:58;;;;;;;;;3.00;3.00;;;;;13.61;38.96;99774.25;5032121;28;45547;-71
2022/03/31 15:51:24;;;;;;;;;4.00;4.00;;;;;13.44;39.61;99786.25;5032326;28;45325;-73
2022/03/31 15:53:50;;;;;;;;;1.75;1.00;;;;;13.32;38.27;99784.47;5013025;28;46205;-71
2022/03/31 15:56:15;;;;;;;;;3.25;2.00;;;;;13.18;37.77;99780.06;5032472;28;45336;-71
2022/03/31 15:58:40;;;;;;;;;1.00;1.00;;;;;13.30;37.64;99777.47;5032445;28;45490;-72
2022/03/31 16:01:06;;;;;;;;;1.75;1.00;;;;;13.57;36.98;99767.38;5032115;28;45240;-72
2022/03/31 16:03:31;;;;;;;;;0.50;0.50;;;;;14.06;35.46;99766.41;5031344;28;46472;-72
2022/03/31 16:05:57;;;;;;;;;3.00;1.00;;;;;14.57;34.45;99769.66;5032066;28;46075;-70
2022/03/31 16:08:22;;;;;;;;;3.25;2.25;;;;;14.93;34.49;99756.00;5031738;28;45427;-71
2022/03/31 16:10:48;;;;;;;;;1.75;1.75;;;;;15.23;34.84;99762.59;5032173;28;45372;-72
2022/03/31 16:13:13;;;;;;;;;2.25;1.00;;;;;15.24;32.52;99759.78;5031571;28;45999;-72